Time;durP1;ratioP1;P1;durP2;ratioP2;P2;SDS_P1;SDS_P2;PMS_P1;PMS_P2;Temp;Humidity;BMP_temperature;BMP_pressure;BME280_temperature;BME280_humidity;BME280_pressure;Samples;Min_cycle;Max_cycle;Signal;HPM_P1;HPM_P2
2023/06/27 00:01:27;;;;;;;2.80;1.60;;;;;21.40;99017.00;;;;5051794;28;20049;-69
2023/06/27 00:03:54;;;;;;;3.03;1.58;;;;;21.40;99024.00;;;;5052958;28;20041;-69
2023/06/27 00:06:21;;;;;;;3.50;1.73;;;;;21.50;99027.00;;;;5053255;28;20103;-69
2023/06/27 00:08:48;;;;;;;4.63;2.50;;;;;21.60;99021.00;;;;5051958;28;20079;-68
2023/06/27 00:11:15;;;;;;;6.20;1.80;;;;;21.60;99033.00;;;;5051749;28;20399;-69
2023/06/27 00:13:43;;;;;;;4.18;2.00;;;;;21.60;99029.00;;;;5052909;28;20425;-69
2023/06/27 00:16:13;;;;;;;1.88;1.58;;;;;21.60;99028.00;;;;5051484;28;20112;-69
2023/06/27 00:18:47;;;;;;;4.10;2.28;;;;;21.60;99035.00;;;;5054218;28;20047;-69
2023/06/27 00:21:15;;;;;;;5.22;1.65;;;;;21.50;99027.00;;;;5051963;28;20045;-69
2023/06/27 00:23:43;;;;;;;8.95;2.38;;;;;21.30;99025.00;;;;5052998;28;20079;-69
2023/06/27 00:26:12;;;;;;;4.60;2.20;;;;;21.30;99031.00;;;;5052649;28;20041;-69
2023/06/27 00:28:38;;;;;;;3.90;2.05;;;;;21.20;99032.00;;;;5051292;28;20115;-68
2023/06/27 00:31:05;;;;;;;5.50;1.73;;;;;21.20;99035.00;;;;5050932;28;20143;-68
2023/06/27 00:33:31;;;;;;;4.13;1.65;;;;;21.20;99034.00;;;;5051369;28;20057;-68
2023/06/27 00:35:58;;;;;;;5.15;1.83;;;;;21.20;99030.00;;;;5052478;28;20124;-68
2023/06/27 00:38:25;;;;;;;3.15;1.98;;;;;21.20;99032.00;;;;5052140;28;20041;-68
2023/06/27 00:40:51;;;;;;;3.97;1.80;;;;;21.20;99034.00;;;;5052191;28;20051;-67
2023/06/27 00:43:18;;;;;;;4.43;1.80;;;;;21.20;99040.00;;;;5051885;28;20144;-67
2023/06/27 00:45:44;;;;;;;4.60;1.95;;;;;21.20;99037.00;;;;5052118;28;20045;-69
2023/06/27 00:48:14;;;;;;;7.93;1.98;;;;;21.20;99040.00;;;;5035424;28;20075;-68
2023/06/27 00:50:43;;;;;;;5.53;2.28;;;;;21.20;99042.00;;;;5051699;28;20454;-67
2023/06/27 00:53:11;;;;;;;2.70;1.85;;;;;21.20;99041.00;;;;5051431;28;20561;-67
2023/06/27 00:55:39;;;;;;;4.60;2.03;;;;;21.20;99053.00;;;;5034798;28;20049;-67
2023/06/27 00:58:08;;;;;;;4.75;1.83;;;;;21.20;99043.00;;;;5052471;28;20387;-67
2023/06/27 01:00:35;;;;;;;2.53;1.85;;;;;21.30;99047.00;;;;5051016;28;20053;-68
2023/06/27 01:03:05;;;;;;;3.83;1.90;;;;;21.20;99053.00;;;;5051065;28;20147;-68
2023/06/27 01:05:32;;;;;;;5.03;1.90;;;;;21.20;99044.00;;;;5051657;28;20122;-68
2023/06/27 01:08:34;;;;;;;5.32;1.90;;;;;21.20;99044.00;;;;5052625;28;20040;-68
2023/06/27 01:11:11;;;;;;;2.08;1.50;;;;;21.10;99053.00;;;;5052943;28;20487;-68
2023/06/27 01:13:42;;;;;;;3.15;2.00;;;;;21.10;99049.00;;;;5053133;28;20049;-68
2023/06/27 01:16:09;;;;;;;3.67;1.90;;;;;21.00;99049.00;;;;5051098;28;20132;-70
2023/06/27 01:18:41;;;;;;;4.35;1.88;;;;;20.90;99048.00;;;;5035635;28;20045;-67
2023/06/27 01:21:08;;;;;;;5.32;1.80;;;;;20.90;99039.00;;;;5050400;28;20059;-69
2023/06/27 01:24:02;;;;;;;3.72;1.90;;;;;20.90;99041.00;;;;5052411;28;20131;-70
2023/06/27 01:26:30;;;;;;;4.47;1.85;;;;;20.80;99042.00;;;;5051124;28;20506;-70
2023/06/27 01:28:56;;;;;;;3.53;1.67;;;;;20.70;99036.00;;;;5054322;28;20052;-70
2023/06/27 01:31:31;;;;;;;4.35;1.90;;;;;20.70;99031.00;;;;5055241;28;20087;-69
2023/06/27 01:34:03;;;;;;;3.78;2.10;;;;;20.70;99031.00;;;;5054957;28;20055;-69
2023/06/27 01:36:49;;;;;;;5.35;2.42;;;;;20.70;99034.00;;;;5055196;28;20048;-69
2023/06/27 01:39:23;;;;;;;3.63;2.00;;;;;20.60;99048.00;;;;5054770;28;20093;-69
2023/06/27 01:41:58;;;;;;;4.63;1.63;;;;;20.60;99032.00;;;;5056419;28;20311;-69
2023/06/27 01:44:26;;;;;;;3.20;1.90;;;;;20.50;99021.00;;;;5056419;28;20517;-69
2023/06/27 01:46:53;;;;;;;5.80;1.92;;;;;20.40;99028.00;;;;5056124;28;20056;-69
2023/06/27 01:49:20;;;;;;;6.70;1.92;;;;;20.30;99023.00;;;;5054782;28;20461;-70
2023/06/27 01:51:47;;;;;;;4.18;1.58;;;;;20.00;99023.00;;;;5055854;28;20588;-70
2023/06/27 01:54:14;;;;;;;5.35;2.75;;;;;19.90;99022.00;;;;5054463;28;20051;-69
2023/06/27 01:56:40;;;;;;;3.13;2.17;;;;;20.00;99017.00;;;;5037842;28;20468;-69
2023/06/27 01:59:07;;;;;;;5.55;2.63;;;;;20.10;99022.00;;;;5053854;28;20083;-69
2023/06/27 02:01:33;;;;;;;3.85;2.40;;;;;20.10;99016.00;;;;5055167;28;20171;-69
2023/06/27 02:04:03;;;;;;;2.70;1.52;;;;;20.00;99020.00;;;;5039426;28;20057;-69
2023/06/27 02:06:29;;;;;;;3.63;1.90;;;;;19.80;99015.00;;;;5054360;28;20155;-68
2023/06/27 02:08:56;;;;;;;2.83;1.80;;;;;19.50;99014.00;;;;5053963;28;20518;-68
2023/06/27 02:11:23;;;;;;;4.72;1.60;;;;;19.50;99011.00;;;;5054722;28;20466;-68
2023/06/27 02:13:49;;;;;;;4.63;2.85;;;;;19.50;99016.00;;;;5055797;28;20048;-68
2023/06/27 02:16:16;;;;;;;4.38;1.75;;;;;19.70;99017.00;;;;5054411;28;20174;-68
2023/06/27 02:18:43;;;;;;;4.10;2.45;;;;;19.70;99008.00;;;;5054252;28;20073;-68
2023/06/27 02:21:10;;;;;;;4.07;1.60;;;;;19.50;99010.00;;;;5055581;28;20486;-68
2023/06/27 02:23:37;;;;;;;3.03;1.77;;;;;19.40;99011.00;;;;5054774;28;20069;-69
2023/06/27 02:26:04;;;;;;;4.95;2.35;;;;;19.40;99005.00;;;;5054671;28;20091;-69
2023/06/27 02:28:31;;;;;;;3.75;1.90;;;;;19.30;99016.00;;;;5054339;28;20049;-69
2023/06/27 02:30:57;;;;;;;4.07;2.10;;;;;19.30;99015.00;;;;5054394;28;20084;-68
2023/06/27 02:33:24;;;;;;;2.33;2.13;;;;;19.30;99004.00;;;;5055381;28;20410;-68
2023/06/27 02:35:50;;;;;;;4.28;1.80;;;;;19.30;99010.00;;;;5054292;28;20136;-68
2023/06/27 02:38:17;;;;;;;5.32;3.22;;;;;19.40;99005.00;;;;5053974;28;20502;-68
2023/06/27 02:40:43;;;;;;;4.88;2.40;;;;;19.50;99009.00;;;;5054702;28;20119;-68
2023/06/27 02:43:11;;;;;;;7.45;2.40;;;;;19.40;99004.00;;;;5055829;28;20497;-69
2023/06/27 02:45:37;;;;;;;4.78;2.15;;;;;19.20;99001.00;;;;5058525;28;20072;-71
2023/06/27 02:48:04;;;;;;;4.18;2.13;;;;;19.20;99012.00;;;;5065990;28;20055;-69
2023/06/27 02:50:31;;;;;;;3.20;1.83;;;;;19.10;99000.00;;;;5037827;28;20056;-69
2023/06/27 02:52:58;;;;;;;4.53;2.28;;;;;19.10;99010.00;;;;5054180;28;20049;-69
2023/06/27 02:55:25;;;;;;;5.95;2.40;;;;;19.10;99016.00;;;;5037166;28;20525;-69
2023/06/27 02:57:51;;;;;;;5.13;2.33;;;;;19.20;99016.00;;;;5037416;28;20040;-69
2023/06/27 03:00:19;;;;;;;10.40;2.40;;;;;19.20;99022.00;;;;5053427;28;20510;-69
2023/06/27 03:02:46;;;;;;;3.20;2.00;;;;;19.20;99020.00;;;;5054086;28;20045;-69
2023/06/27 03:05:13;;;;;;;3.50;2.05;;;;;19.20;99024.00;;;;5053922;28;20091;-69
2023/06/27 03:07:40;;;;;;;3.05;2.15;;;;;19.20;99019.00;;;;5053538;28;20041;-68
2023/06/27 03:10:08;;;;;;;4.35;2.70;;;;;19.10;99029.00;;;;5053300;28;20068;-68
2023/06/27 03:12:34;;;;;;;6.13;4.10;;;;;19.10;99021.00;;;;5054106;28;20056;-70
2023/06/27 03:15:03;;;;;;;2.97;2.28;;;;;19.10;99033.00;;;;5054258;28;20486;-68
2023/06/27 03:17:31;;;;;;;2.65;2.00;;;;;19.00;99029.00;;;;5052759;28;20041;-68
2023/06/27 03:19:58;;;;;;;7.32;2.85;;;;;19.00;99035.00;;;;5054179;28;20051;-68
2023/06/27 03:22:26;;;;;;;3.25;2.13;;;;;18.90;99040.00;;;;5052705;28;20140;-68
2023/06/27 03:24:53;;;;;;;3.67;2.53;;;;;18.80;99035.00;;;;5052743;28;20094;-69
2023/06/27 03:27:23;;;;;;;4.80;2.35;;;;;18.90;99043.00;;;;5052696;28;20589;-69
2023/06/27 03:29:51;;;;;;;5.13;2.70;;;;;18.90;99043.00;;;;5052571;28;20047;-70
2023/06/27 03:32:18;;;;;;;3.30;2.22;;;;;18.90;99039.00;;;;5036564;28;20057;-69
2023/06/27 03:34:44;;;;;;;4.53;2.10;;;;;18.90;99040.00;;;;5052749;28;20163;-68
2023/06/27 03:37:11;;;;;;;4.57;2.45;;;;;18.90;99038.00;;;;5053025;28;20095;-69
2023/06/27 03:39:38;;;;;;;8.57;2.80;;;;;18.80;99037.00;;;;5052147;28;20045;-68
2023/06/27 03:42:06;;;;;;;5.00;2.50;;;;;18.80;99037.00;;;;5053697;28;20091;-68
2023/06/27 03:44:34;;;;;;;3.03;2.53;;;;;18.90;99038.00;;;;5036354;28;20106;-68
2023/06/27 03:47:00;;;;;;;5.22;2.88;;;;;18.90;99043.00;;;;5052862;28;20494;-70
2023/06/27 03:49:27;;;;;;;4.55;2.38;;;;;18.80;99044.00;;;;5052551;28;20092;-69
2023/06/27 03:51:55;;;;;;;4.78;2.25;;;;;18.80;99048.00;;;;5035902;28;20410;-70
2023/06/27 03:54:22;;;;;;;2.95;2.17;;;;;18.70;99048.00;;;;5053823;28;20124;-68
2023/06/27 03:56:48;;;;;;;7.10;2.90;;;;;18.80;99039.00;;;;5036308;28;20457;-69
2023/06/27 03:59:17;;;;;;;5.80;2.50;;;;;18.80;99044.00;;;;5051888;28;20609;-69
2023/06/27 04:01:43;;;;;;;4.57;2.83;;;;;18.80;99047.00;;;;5052007;28;20418;-69
2023/06/27 04:04:10;;;;;;;4.43;2.22;;;;;18.80;99041.00;;;;5051979;28;20556;-67
2023/06/27 04:06:40;;;;;;;6.65;2.20;;;;;18.80;99042.00;;;;5051834;28;20051;-68
2023/06/27 04:09:07;;;;;;;2.55;2.25;;;;;18.80;99044.00;;;;5051416;28;20048;-68
2023/06/27 04:11:34;;;;;;;5.90;2.88;;;;;18.70;99043.00;;;;5035236;28;20045;-69
2023/06/27 04:14:01;;;;;;;4.18;2.30;;;;;18.70;99051.00;;;;5053194;28;20461;-69
2023/06/27 04:16:27;;;;;;;6.07;2.60;;;;;18.60;99043.00;;;;5053006;28;20033;-68
2023/06/27 04:18:54;;;;;;;6.63;3.85;;;;;18.60;99044.00;;;;5051424;28;20049;-68
2023/06/27 04:21:22;;;;;;;6.00;3.67;;;;;18.60;99052.00;;;;5051734;28;20063;-68
2023/06/27 04:23:54;;;;;;;5.13;3.55;;;;;18.70;99064.00;;;;5051535;28;20098;-70
2023/06/27 04:26:20;;;;;;;7.30;4.72;;;;;18.80;99063.00;;;;5052138;28;20045;-70
2023/06/27 04:28:47;;;;;;;5.07;2.50;;;;;18.90;99059.00;;;;5052727;28;20474;-69
2023/06/27 04:31:14;;;;;;;3.67;2.65;;;;;18.90;99057.00;;;;5052583;28;20052;-70
2023/06/27 04:33:41;;;;;;;4.53;3.10;;;;;18.90;99050.00;;;;5052772;28;20052;-70
2023/06/27 04:36:09;;;;;;;4.15;2.63;;;;;19.00;99066.00;;;;5051636;28;20510;-69
2023/06/27 04:38:39;;;;;;;7.28;2.80;;;;;19.10;99056.00;;;;5052655;28;20049;-69
2023/06/27 04:41:10;;;;;;;3.53;2.28;;;;;19.20;99054.00;;;;5052881;28;20460;-69
2023/06/27 04:43:39;;;;;;;5.30;3.30;;;;;19.20;99052.00;;;;5035194;28;20045;-69
2023/06/27 04:46:06;;;;;;;4.55;2.63;;;;;19.40;99053.00;;;;5052570;28;20433;-69
2023/06/27 04:48:32;;;;;;;6.03;2.75;;;;;19.40;99052.00;;;;5053633;28;20060;-68
2023/06/27 04:50:59;;;;;;;2.67;2.33;;;;;19.40;99054.00;;;;5052549;28;20131;-69
2023/06/27 04:53:30;;;;;;;6.07;3.40;;;;;19.50;99067.00;;;;5051344;28;20443;-69
2023/06/27 04:55:56;;;;;;;5.68;3.67;;;;;19.70;99065.00;;;;5052214;28;20414;-68
2023/06/27 04:58:23;;;;;;;11.35;5.05;;;;;19.80;99072.00;;;;5050987;28;20052;-69
2023/06/27 05:00:51;;;;;;;7.63;4.60;;;;;19.90;99067.00;;;;5051351;28;20072;-69
2023/06/27 05:03:20;;;;;;;7.57;4.28;;;;;20.00;99071.00;;;;5051945;28;20099;-69
2023/06/27 05:05:48;;;;;;;6.05;3.15;;;;;20.10;99069.00;;;;5052470;28;20041;-69
2023/06/27 05:08:15;;;;;;;9.52;3.30;;;;;20.20;99073.00;;;;5053836;28;20041;-69
2023/06/27 05:10:41;;;;;;;4.30;2.78;;;;;20.30;99067.00;;;;5051625;28;20052;-69
2023/06/27 05:13:08;;;;;;;5.68;3.08;;;;;20.40;99054.00;;;;5051379;28;20387;-70
2023/06/27 05:15:35;;;;;;;6.40;2.60;;;;;20.50;99055.00;;;;5052449;28;20043;-70
2023/06/27 05:18:07;;;;;;;4.95;2.67;;;;;20.60;99058.00;;;;5052306;28;20045;-69
2023/06/27 05:20:37;;;;;;;3.58;2.72;;;;;20.60;99061.00;;;;5053766;28;20055;-70
2023/06/27 05:23:05;;;;;;;6.15;3.53;;;;;20.50;99062.00;;;;5053345;28;20045;-70
2023/06/27 05:25:33;;;;;;;5.78;2.97;;;;;20.50;99061.00;;;;5055654;28;20666;-70
2023/06/27 05:28:00;;;;;;;5.97;3.28;;;;;20.50;99064.00;;;;5056299;28;20048;-70
2023/06/27 05:30:27;;;;;;;8.85;3.22;;;;;20.50;99055.00;;;;5055965;28;20137;-70
2023/06/27 05:32:55;;;;;;;4.05;2.42;;;;;20.50;99059.00;;;;5057890;28;20056;-70
2023/06/27 05:35:22;;;;;;;8.73;2.88;;;;;20.50;99065.00;;;;5055389;28;20434;-70
2023/06/27 05:37:49;;;;;;;7.75;3.22;;;;;20.50;99066.00;;;;5052361;28;20383;-69
2023/06/27 05:40:16;;;;;;;5.70;2.75;;;;;20.60;99066.00;;;;5034414;28;20095;-69
2023/06/27 05:42:43;;;;;;;4.00;2.83;;;;;20.60;99065.00;;;;5051455;28;20068;-69
2023/06/27 05:45:10;;;;;;;3.65;2.67;;;;;20.70;99073.00;;;;5052257;28;20041;-70
2023/06/27 05:47:36;;;;;;;5.43;2.95;;;;;20.70;99073.00;;;;5051983;28;20486;-70
2023/06/27 05:50:03;;;;;;;4.95;2.85;;;;;20.70;99073.00;;;;5052130;28;20052;-70
2023/06/27 05:52:30;;;;;;;8.25;3.20;;;;;20.80;99078.00;;;;5051611;28;20119;-70
2023/06/27 05:54:57;;;;;;;7.63;3.78;;;;;20.90;99077.00;;;;5054388;28;20524;-70
2023/06/27 05:57:24;;;;;;;7.00;2.92;;;;;20.90;99071.00;;;;5056663;28;20068;-70
2023/06/27 05:59:51;;;;;;;7.32;3.28;;;;;21.00;99076.00;;;;5055769;28;20087;-70
2023/06/27 06:02:18;;;;;;;6.45;3.13;;;;;21.20;99074.00;;;;5055682;28;20060;-70
2023/06/27 06:04:44;;;;;;;8.70;3.63;;;;;21.40;99076.00;;;;5056285;28;20422;-68
2023/06/27 06:07:11;;;;;;;3.38;2.50;;;;;21.40;99071.00;;;;5056359;28;20048;-70
2023/06/27 06:09:38;;;;;;;5.32;2.67;;;;;21.40;99065.00;;;;5056755;28;20102;-68
2023/06/27 06:12:05;;;;;;;5.88;2.20;;;;;21.20;99066.00;;;;5055442;28;20120;-70
2023/06/27 06:14:32;;;;;;;5.45;2.42;;;;;21.00;99074.00;;;;5055689;28;20044;-70
2023/06/27 06:16:58;;;;;;;5.97;2.95;;;;;21.20;99081.00;;;;5056403;28;20124;-70
2023/06/27 06:19:25;;;;;;;4.43;3.00;;;;;21.20;99068.00;;;;5057236;28;20102;-70
2023/06/27 06:21:52;;;;;;;4.05;2.30;;;;;21.40;99064.00;;;;5060107;28;20105;-70
2023/06/27 06:24:18;;;;;;;6.07;2.30;;;;;21.70;99065.00;;;;5059854;28;20041;-70
2023/06/27 06:26:45;;;;;;;6.32;2.28;;;;;21.80;99063.00;;;;5057242;28;20561;-70
2023/06/27 06:29:13;;;;;;;7.18;2.25;;;;;21.80;99068.00;;;;5067171;28;20132;-69
2023/06/27 06:31:40;;;;;;;5.47;4.30;;;;;21.80;99078.00;;;;5071771;28;20049;-69
2023/06/27 06:34:07;;;;;;;7.70;4.25;;;;;21.60;99078.00;;;;5067659;28;20060;-68
2023/06/27 06:36:34;;;;;;;5.68;2.72;;;;;21.50;99080.00;;;;5069850;28;20076;-68
2023/06/27 06:39:01;;;;;;;5.97;2.22;;;;;21.40;99084.00;;;;5066224;28;20139;-69
2023/06/27 06:41:27;;;;;;;4.65;2.15;;;;;21.40;99080.00;;;;5064874;28;20049;-69
2023/06/27 06:43:55;;;;;;;4.85;1.85;;;;;21.40;99083.00;;;;5062720;28;20108;-69
2023/06/27 06:46:23;;;;;;;4.03;1.73;;;;;21.40;99085.00;;;;5061884;28;20041;-69
2023/06/27 06:48:51;;;;;;;6.57;2.05;;;;;21.50;99086.00;;;;5060091;28;20135;-69
2023/06/27 06:51:18;;;;;;;6.93;2.50;;;;;21.70;99089.00;;;;5068717;28;20037;-69
2023/06/27 06:53:44;;;;;;;3.85;1.90;;;;;21.70;99075.00;;;;5066801;28;20049;-69
2023/06/27 06:56:11;;;;;;;8.18;2.15;;;;;21.80;99080.00;;;;5068908;28;20045;-69
2023/06/27 06:58:38;;;;;;;5.18;1.55;;;;;21.90;99082.00;;;;5067941;28;20141;-69
2023/06/27 07:01:04;;;;;;;6.20;2.05;;;;;22.00;99089.00;;;;5070667;28;20049;-69
2023/06/27 07:03:33;;;;;;;8.63;2.03;;;;;22.10;99080.00;;;;5069921;28;20044;-69
2023/06/27 07:06:00;;;;;;;4.97;2.47;;;;;22.40;99080.00;;;;5063035;28;20072;-70
2023/06/27 07:08:26;;;;;;;4.45;2.15;;;;;22.60;99075.00;;;;5066844;28;20048;-69
2023/06/27 07:10:53;;;;;;;4.28;1.75;;;;;22.70;99077.00;;;;5063479;28;20080;-69
2023/06/27 07:13:20;;;;;;;2.83;2.13;;;;;22.60;99076.00;;;;5061548;28;20068;-69
2023/06/27 07:15:46;;;;;;;4.28;2.28;;;;;22.70;99079.00;;;;5059668;28;20080;-68
2023/06/27 07:18:13;;;;;;;3.15;1.60;;;;;22.70;99081.00;;;;5061657;28;20487;-69
2023/06/27 07:20:39;;;;;;;2.78;1.80;;;;;22.80;99077.00;;;;5058098;28;20045;-68
2023/06/27 07:23:06;;;;;;;2.38;1.58;;;;;22.80;99073.00;;;;5042853;28;20147;-69
2023/06/27 07:25:32;;;;;;;3.25;1.50;;;;;22.80;99068.00;;;;5060437;28;20055;-70
2023/06/27 07:27:59;;;;;;;4.75;1.90;;;;;22.60;99064.00;;;;5061561;28;20044;-69
2023/06/27 07:30:25;;;;;;;6.93;3.03;;;;;22.60;99063.00;;;;5064620;28;20100;-69
2023/06/27 07:32:52;;;;;;;5.45;1.83;;;;;22.80;99068.00;;;;5062544;28;20056;-70
2023/06/27 07:35:19;;;;;;;4.22;1.80;;;;;22.90;99060.00;;;;5056501;28;20553;-70
2023/06/27 07:37:46;;;;;;;3.40;1.67;;;;;23.00;99062.00;;;;5055449;28;20045;-68
2023/06/27 07:40:12;;;;;;;3.47;1.40;;;;;22.90;99058.00;;;;5058287;28;20028;-67
2023/06/27 07:42:39;;;;;;;3.17;1.73;;;;;23.00;99051.00;;;;5056879;28;20099;-66
2023/06/27 07:45:06;;;;;;;1.88;1.42;;;;;23.20;99057.00;;;;5054820;28;20084;-65
2023/06/27 07:47:33;;;;;;;3.58;1.38;;;;;23.10;99057.00;;;;5054300;28;20041;-65
2023/06/27 07:49:59;;;;;;;1.80;1.40;;;;;23.10;99052.00;;;;5054036;28;20079;-67
2023/06/27 07:52:26;;;;;;;3.15;1.60;;;;;22.70;99050.00;;;;5055331;28;20128;-67
2023/06/27 07:54:52;;;;;;;2.97;1.48;;;;;22.40;99058.00;;;;5055121;28;20131;-67
2023/06/27 07:57:19;;;;;;;2.50;1.50;;;;;22.40;99056.00;;;;5055475;28;20048;-67
2023/06/27 07:59:46;;;;;;;4.68;1.83;;;;;22.40;99057.00;;;;5054355;28;20084;-67
2023/06/27 08:02:12;;;;;;;3.40;1.60;;;;;22.60;99048.00;;;;5055375;28;20053;-68
2023/06/27 08:04:39;;;;;;;2.45;1.40;;;;;22.90;99044.00;;;;5053564;28;20494;-66
2023/06/27 08:07:06;;;;;;;3.08;1.50;;;;;23.20;99054.00;;;;5056786;28;20577;-66
2023/06/27 08:09:32;;;;;;;2.65;1.85;;;;;23.50;99052.00;;;;5055599;28;20048;-66
2023/06/27 08:11:59;;;;;;;4.57;1.75;;;;;23.60;99054.00;;;;5053418;28;20045;-65
2023/06/27 08:14:29;;;;;;;2.88;1.80;;;;;23.40;99049.00;;;;5053270;28;20040;-66
2023/06/27 08:16:56;;;;;;;1.88;1.30;;;;;23.20;99044.00;;;;5053121;28;20402;-67
2023/06/27 08:19:22;;;;;;;1.85;1.30;;;;;23.20;99044.00;;;;5052865;28;20401;-67
2023/06/27 08:21:49;;;;;;;6.53;3.20;;;;;23.30;99043.00;;;;5052744;28;20049;-65
2023/06/27 08:24:16;;;;;;;8.63;5.30;;;;;23.70;99025.00;;;;5052472;28;20041;-65
2023/06/27 08:26:44;;;;;;;2.50;1.90;;;;;24.10;99038.00;;;;5052842;28;20041;-66
2023/06/27 08:29:11;;;;;;;6.38;2.28;;;;;24.40;99035.00;;;;5052356;28;20413;-66
2023/06/27 08:31:37;;;;;;;2.97;1.50;;;;;24.40;99035.00;;;;5051432;28;20441;-66
2023/06/27 08:34:04;;;;;;;4.47;1.77;;;;;24.60;99033.00;;;;5052379;28;20098;-66
2023/06/27 08:36:31;;;;;;;5.10;1.90;;;;;24.70;99028.00;;;;5052576;28;20200;-67
2023/06/27 08:38:57;;;;;;;4.72;1.90;;;;;24.90;99026.00;;;;5051714;28;20073;-67
2023/06/27 08:41:24;;;;;;;4.40;1.95;;;;;25.10;99025.00;;;;5052548;28;20492;-67
2023/06/27 08:43:51;;;;;;;4.20;1.67;;;;;25.10;99023.00;;;;5052468;28;20126;-66
2023/06/27 08:46:21;;;;;;;6.13;2.17;;;;;25.20;99021.00;;;;5052483;28;20040;-67
2023/06/27 08:48:52;;;;;;;3.83;1.63;;;;;25.30;99017.00;;;;5052065;28;20585;-67
2023/06/27 08:51:21;;;;;;;6.60;1.60;;;;;25.30;99011.00;;;;5052480;28;20072;-66
2023/06/27 08:53:50;;;;;;;5.85;1.92;;;;;25.30;99018.00;;;;5052592;28;20460;-69
2023/06/27 08:56:20;;;;;;;4.85;2.17;;;;;25.40;99015.00;;;;5052458;28;20115;-69
2023/06/27 08:59:01;;;;;;;7.53;1.67;;;;;25.50;99016.00;;;;5052170;28;20479;-70
2023/06/27 09:01:31;;;;;;;2.72;1.70;;;;;25.70;99010.00;;;;5052542;28;20047;-68
2023/06/27 09:04:01;;;;;;;7.80;2.42;;;;;25.90;99017.00;;;;5034580;28;20055;-70
2023/06/27 09:06:28;;;;;;;6.30;1.65;;;;;25.90;99005.00;;;;5052565;28;20049;-69
2023/06/27 09:08:55;;;;;;;4.32;1.75;;;;;25.90;99005.00;;;;5052169;28;20041;-68
2023/06/27 09:11:24;;;;;;;3.17;1.70;;;;;26.00;99010.00;;;;5052508;28;20047;-68
2023/06/27 09:13:50;;;;;;;4.50;1.90;;;;;26.00;99001.00;;;;5052363;28;20081;-68
2023/06/27 09:16:18;;;;;;;2.40;1.70;;;;;26.00;98999.00;;;;5052019;28;20452;-69
2023/06/27 09:18:47;;;;;;;4.53;2.03;;;;;25.70;99002.00;;;;5050800;28;20136;-68
2023/06/27 09:21:14;;;;;;;5.55;2.20;;;;;25.70;99016.00;;;;5051978;28;20120;-67
2023/06/27 09:23:41;;;;;;;5.15;1.65;;;;;25.70;99006.00;;;;5050482;28;20525;-68
2023/06/27 09:26:12;;;;;;;5.03;2.35;;;;;25.80;99008.00;;;;5051764;28;20053;-69
2023/06/27 09:28:50;;;;;;;3.58;1.83;;;;;25.90;99012.00;;;;5052106;28;20033;-69
2023/06/27 09:31:18;;;;;;;6.80;1.80;;;;;26.00;99009.00;;;;5052258;28;20494;-69
2023/06/27 09:33:47;;;;;;;4.03;1.80;;;;;26.00;99002.00;;;;5052006;28;20044;-70
2023/06/27 09:36:34;;;;;;;4.68;1.70;;;;;26.10;99001.00;;;;5034338;28;20045;-68
2023/06/27 09:39:05;;;;;;;4.55;1.83;;;;;25.90;99009.00;;;;5051915;28;20402;-70
2023/06/27 09:41:46;;;;;;;5.22;2.42;;;;;25.90;98999.00;;;;5051954;28;20045;-69
2023/06/27 09:44:18;;;;;;;6.30;2.22;;;;;26.00;99003.00;;;;5052203;28;20497;-68
2023/06/27 09:46:46;;;;;;;7.70;2.08;;;;;26.10;99009.00;;;;5052223;28;20048;-70
2023/06/27 09:49:14;;;;;;;5.03;2.05;;;;;26.20;99005.00;;;;5051525;28;20559;-69
2023/06/27 09:51:46;;;;;;;6.10;2.17;;;;;26.30;99007.00;;;;5054830;28;20124;-70
2023/06/27 09:54:13;;;;;;;4.25;1.58;;;;;26.30;99008.00;;;;5038163;28;20648;-69
2023/06/27 09:56:49;;;;;;;2.83;1.67;;;;;26.30;99012.00;;;;5038630;28;20519;-69
2023/06/27 09:59:17;;;;;;;3.33;1.88;;;;;26.30;99005.00;;;;5055581;28;20077;-69
2023/06/27 10:01:51;;;;;;;10.77;2.17;;;;;26.50;99005.00;;;;5054753;28;20044;-69
2023/06/27 10:04:18;;;;;;;12.30;1.98;;;;;26.60;99007.00;;;;5054756;28;20041;-67
2023/06/27 10:06:45;;;;;;;63.53;5.85;;;;;26.90;99002.00;;;;5055557;28;20675;-68
2023/06/27 10:09:12;;;;;;;3.92;1.80;;;;;26.90;99001.00;;;;5053871;28;20051;-69
2023/06/27 10:11:39;;;;;;;4.85;1.40;;;;;26.90;98999.00;;;;5054294;28;20063;-68
2023/06/27 10:14:07;;;;;;;2.00;1.45;;;;;26.80;99006.00;;;;5054388;28;20083;-71
2023/06/27 10:16:34;;;;;;;4.05;1.60;;;;;26.70;99007.00;;;;5055392;28;20449;-66
2023/06/27 10:19:05;;;;;;;6.45;2.17;;;;;26.90;99010.00;;;;5056460;28;20044;-68
2023/06/27 10:21:32;;;;;;;5.55;2.20;;;;;27.10;99004.00;;;;5057245;28;20077;-66
2023/06/27 10:24:00;;;;;;;5.90;1.70;;;;;27.20;99009.00;;;;5058019;28;20041;-67
2023/06/27 10:26:28;;;;;;;5.47;2.03;;;;;27.10;99005.00;;;;5058809;28;20075;-65
2023/06/27 10:28:55;;;;;;;5.85;1.95;;;;;27.20;99006.00;;;;5060564;28;20052;-65
2023/06/27 10:31:47;;;;;;;3.05;1.55;;;;;27.30;99004.00;;;;5043485;28;20059;-66
2023/06/27 10:34:24;;;;;;;2.95;1.70;;;;;27.10;99007.00;;;;5058529;28;20049;-69
2023/06/27 10:36:53;;;;;;;3.22;1.40;;;;;27.10;99012.00;;;;5039546;28;20077;-67
2023/06/27 10:39:31;;;;;;;6.38;2.00;;;;;27.10;99012.00;;;;5056578;28;20058;-68
2023/06/27 10:42:03;;;;;;;2.47;1.65;;;;;27.20;99014.00;;;;5057292;28;20045;-68
2023/06/27 10:44:30;;;;;;;4.55;2.78;;;;;27.20;99001.00;;;;5057060;28;20065;-64
2023/06/27 10:47:15;;;;;;;3.75;1.80;;;;;27.20;99005.00;;;;5057439;28;20045;-68
2023/06/27 10:49:46;;;;;;;2.97;1.60;;;;;27.20;99014.00;;;;5055577;28;20549;-66
2023/06/27 10:52:23;;;;;;;3.35;1.65;;;;;27.30;99010.00;;;;5055906;28;20051;-69
2023/06/27 10:55:15;;;;;;;2.50;1.45;;;;;27.40;99017.00;;;;5056592;28;20068;-66
2023/06/27 10:57:48;;;;;;;3.80;1.60;;;;;27.30;99026.00;;;;5056010;28;20398;-67
2023/06/27 11:00:26;;;;;;;5.10;1.65;;;;;27.20;99018.00;;;;5056163;28;20126;-67
2023/06/27 11:02:56;;;;;;;5.30;1.73;;;;;27.20;99007.00;;;;5054429;28;20045;-66
2023/06/27 11:05:43;;;;;;;2.97;1.40;;;;;27.50;99010.00;;;;5054535;28;20044;-66
2023/06/27 11:08:15;;;;;;;4.18;1.48;;;;;27.50;99006.00;;;;5055845;28;20072;-65
2023/06/27 11:11:08;;;;;;;2.85;1.48;;;;;27.30;98991.00;;;;5056544;28;20045;-67
2023/06/27 11:13:38;;;;;;;4.78;1.77;;;;;27.20;99000.00;;;;5054298;28;20044;-64
2023/06/27 11:16:05;;;;;;;4.45;1.45;;;;;27.20;98997.00;;;;5056437;28;20702;-68
2023/06/27 11:18:33;;;;;;;5.38;1.95;;;;;27.10;98995.00;;;;5056368;28;20052;-68
2023/06/27 11:21:00;;;;;;;9.45;2.20;;;;;27.00;99001.00;;;;5057699;28;20044;-68
2023/06/27 11:23:29;;;;;;;4.30;2.22;;;;;26.90;99004.00;;;;5056924;28;20048;-65
2023/06/27 11:25:56;;;;;;;5.18;1.75;;;;;27.00;99000.00;;;;5056344;28;20304;-68
2023/06/27 11:28:24;;;;;;;2.60;1.50;;;;;26.90;98997.00;;;;5056681;28;20043;-69
2023/06/27 11:31:01;;;;;;;3.88;1.50;;;;;26.90;98994.00;;;;5060049;28;20041;-68
2023/06/27 11:33:28;;;;;;;6.30;1.90;;;;;27.00;98989.00;;;;5059369;28;20067;-66
2023/06/27 11:35:59;;;;;;;3.67;1.88;;;;;27.00;98993.00;;;;5057139;28;20115;-68
2023/06/27 11:38:27;;;;;;;3.30;2.00;;;;;27.20;98987.00;;;;5056883;28;20049;-66
2023/06/27 11:40:54;;;;;;;5.07;1.58;;;;;27.40;98978.00;;;;5057238;28;20612;-66
2023/06/27 11:43:20;;;;;;;9.23;2.10;;;;;27.20;98972.00;;;;5039324;28;20056;-67
2023/06/27 11:45:49;;;;;;;4.47;1.90;;;;;27.20;98974.00;;;;5055962;28;20053;-66
2023/06/27 11:48:16;;;;;;;2.70;1.80;;;;;27.10;98962.00;;;;5055519;28;20052;-65
2023/06/27 11:51:06;;;;;;;6.95;2.05;;;;;27.20;98960.00;;;;5054736;28;20076;-67
2023/06/27 11:53:36;;;;;;;4.40;1.73;;;;;27.20;98963.00;;;;5053348;28;20056;-65
2023/06/27 11:56:04;;;;;;;1.83;1.33;;;;;27.00;98959.00;;;;5036822;28;20143;-65
2023/06/27 11:58:37;;;;;;;2.63;1.42;;;;;27.00;98950.00;;;;5054217;28;20041;-66
2023/06/27 12:01:15;;;;;;;3.60;1.70;;;;;27.00;98955.00;;;;5036255;28;20383;-64
2023/06/27 12:03:49;;;;;;;2.58;1.92;;;;;27.00;98957.00;;;;5054472;28;20040;-65
2023/06/27 12:06:27;;;;;;;2.45;1.67;;;;;27.20;98956.00;;;;5054875;28;20052;-65
2023/06/27 12:08:55;;;;;;;3.33;2.13;;;;;27.40;98955.00;;;;5036277;28;20045;-66
2023/06/27 12:11:34;;;;;;;2.42;1.70;;;;;27.50;98955.00;;;;5052971;28;20079;-67
2023/06/27 12:14:02;;;;;;;5.97;3.80;;;;;27.70;98947.00;;;;5052844;28;20544;-66
2023/06/27 12:16:33;;;;;;;3.25;1.73;;;;;27.90;98944.00;;;;5052335;28;20063;-65
2023/06/27 12:19:10;;;;;;;4.38;2.08;;;;;28.00;98944.00;;;;5035376;28;20060;-66
2023/06/27 12:21:37;;;;;;;4.57;1.90;;;;;28.00;98939.00;;;;5036142;28;20498;-70
2023/06/27 12:24:04;;;;;;;4.07;1.70;;;;;27.90;98937.00;;;;5053911;28;20041;-71
2023/06/27 12:26:31;;;;;;;3.13;1.40;;;;;27.90;98940.00;;;;5052887;28;20044;-71